sensor_id;sensor_type;location;lat;lon;timestamp;temperature;humidity
71084;DHT22;58741;52.672;13.548;2023-07-28T00:01:32;17.10;99.90
71084;DHT22;58741;52.672;13.548;2023-07-28T00:03:58;17.10;99.90
71084;DHT22;58741;52.672;13.548;2023-07-28T00:06:23;17.10;99.90
71084;DHT22;58741;52.672;13.548;2023-07-28T00:08:49;17.10;99.90
71084;DHT22;58741;52.672;13.548;2023-07-28T00:11:15;17.10;99.90
71084;DHT22;58741;52.672;13.548;2023-07-28T00:13:42;17.10;99.90
71084;DHT22;58741;52.672;13.548;2023-07-28T00:16:08;17.10;99.90
71084;DHT22;58741;52.672;13.548;2023-07-28T00:18:34;17.10;99.90
71084;DHT22;58741;52.672;13.548;2023-07-28T00:21:00;17.10;99.90
71084;DHT22;58741;52.672;13.548;2023-07-28T00:23:28;17.10;99.90
71084;DHT22;58741;52.672;13.548;2023-07-28T00:25:53;17.10;99.90
71084;DHT22;58741;52.672;13.548;2023-07-28T00:28:19;17.10;99.90
71084;DHT22;58741;52.672;13.548;2023-07-28T00:30:49;17.10;99.90
71084;DHT22;58741;52.672;13.548;2023-07-28T00:33:15;17.10;99.90
71084;DHT22;58741;52.672;13.548;2023-07-28T00:35:41;17.20;99.90
71084;DHT22;58741;52.672;13.548;2023-07-28T00:38:07;17.20;99.90
71084;DHT22;58741;52.672;13.548;2023-07-28T00:40:32;17.20;99.90
71084;DHT22;58741;52.672;13.548;2023-07-28T00:42:58;17.20;99.90
71084;DHT22;58741;52.672;13.548;2023-07-28T00:45:25;17.20;99.90
71084;DHT22;58741;52.672;13.548;2023-07-28T00:47:51;17.20;99.90
71084;DHT22;58741;52.672;13.548;2023-07-28T00:50:17;17.20;99.90
71084;DHT22;58741;52.672;13.548;2023-07-28T00:52:43;17.20;99.90
71084;DHT22;58741;52.672;13.548;2023-07-28T00:55:09;17.20;99.90
71084;DHT22;58741;52.672;13.548;2023-07-28T00:57:34;17.20;99.90
71084;DHT22;58741;52.672;13.548;2023-07-28T01:00:00;17.20;99.90
71084;DHT22;58741;52.672;13.548;2023-07-28T01:02:26;17.20;99.90
71084;DHT22;58741;52.672;13.548;2023-07-28T01:04:52;17.20;99.90
71084;DHT22;58741;52.672;13.548;2023-07-28T01:07:47;17.20;99.90
71084;DHT22;58741;52.672;13.548;2023-07-28T01:10:26;17.30;99.90
71084;DHT22;58741;52.672;13.548;2023-07-28T01:12:53;17.30;99.90
71084;DHT22;58741;52.672;13.548;2023-07-28T01:15:19;17.30;99.90
71084;DHT22;58741;52.672;13.548;2023-07-28T01:17:45;17.30;99.90
71084;DHT22;58741;52.672;13.548;2023-07-28T01:20:11;17.30;99.90
71084;DHT22;58741;52.672;13.548;2023-07-28T01:22:58;17.30;99.90
71084;DHT22;58741;52.672;13.548;2023-07-28T01:25:50;17.30;99.90
71084;DHT22;58741;52.672;13.548;2023-07-28T01:28:18;17.30;99.90
71084;DHT22;58741;52.672;13.548;2023-07-28T01:30:44;17.30;99.90
71084;DHT22;58741;52.672;13.548;2023-07-28T01:33:10;17.30;99.90
71084;DHT22;58741;52.672;13.548;2023-07-28T01:35:36;17.30;99.90
71084;DHT22;58741;52.672;13.548;2023-07-28T01:38:02;17.30;99.90
71084;DHT22;58741;52.672;13.548;2023-07-28T01:40:28;17.30;99.90
71084;DHT22;58741;52.672;13.548;2023-07-28T01:42:53;17.40;99.90
71084;DHT22;58741;52.672;13.548;2023-07-28T01:45:19;17.30;99.90
71084;DHT22;58741;52.672;13.548;2023-07-28T01:47:44;17.30;99.90
71084;DHT22;58741;52.672;13.548;2023-07-28T01:50:10;17.40;99.90
71084;DHT22;58741;52.672;13.548;2023-07-28T01:52:35;17.40;99.90
71084;DHT22;58741;52.672;13.548;2023-07-28T01:55:01;17.40;99.90
71084;DHT22;58741;52.672;13.548;2023-07-28T01:57:27;17.40;99.90
71084;DHT22;58741;52.672;13.548;2023-07-28T01:59:54;17.40;99.90
71084;DHT22;58741;52.672;13.548;2023-07-28T02:02:19;17.40;99.90
71084;DHT22;58741;52.672;13.548;2023-07-28T02:04:45;17.50;99.90
71084;DHT22;58741;52.672;13.548;2023-07-28T02:07:11;17.40;99.90
71084;DHT22;58741;52.672;13.548;2023-07-28T02:09:37;17.50;99.90
71084;DHT22;58741;52.672;13.548;2023-07-28T02:12:02;17.50;99.90
71084;DHT22;58741;52.672;13.548;2023-07-28T02:14:28;17.40;99.90
71084;DHT22;58741;52.672;13.548;2023-07-28T02:16:54;17.50;99.90
71084;DHT22;58741;52.672;13.548;2023-07-28T02:21:57;17.40;99.90
71084;DHT22;58741;52.672;13.548;2023-07-28T02:24:22;17.50;99.90
71084;DHT22;58741;52.672;13.548;2023-07-28T02:26:48;17.50;99.90
71084;DHT22;58741;52.672;13.548;2023-07-28T02:29:14;17.50;99.90
71084;DHT22;58741;52.672;13.548;2023-07-28T02:31:39;17.50;99.90
71084;DHT22;58741;52.672;13.548;2023-07-28T02:34:05;17.50;99.90
71084;DHT22;58741;52.672;13.548;2023-07-28T02:36:31;17.50;99.90
71084;DHT22;58741;52.672;13.548;2023-07-28T02:38:56;17.50;99.90
71084;DHT22;58741;52.672;13.548;2023-07-28T02:41:22;17.50;99.90
71084;DHT22;58741;52.672;13.548;2023-07-28T02:43:48;17.50;99.90
71084;DHT22;58741;52.672;13.548;2023-07-28T02:46:13;17.50;99.90
71084;DHT22;58741;52.672;13.548;2023-07-28T02:48:39;17.50;99.90
71084;DHT22;58741;52.672;13.548;2023-07-28T02:51:04;17.50;99.90
71084;DHT22;58741;52.672;13.548;2023-07-28T02:53:30;17.60;99.90
71084;DHT22;58741;52.672;13.548;2023-07-28T02:55:56;17.60;99.90
71084;DHT22;58741;52.672;13.548;2023-07-28T02:58:22;17.60;99.90
71084;DHT22;58741;52.672;13.548;2023-07-28T03:00:47;17.60;99.90
71084;DHT22;58741;52.672;13.548;2023-07-28T03:03:18;17.60;99.90
71084;DHT22;58741;52.672;13.548;2023-07-28T03:05:43;17.60;99.90
71084;DHT22;58741;52.672;13.548;2023-07-28T03:08:27;17.60;99.90
71084;DHT22;58741;52.672;13.548;2023-07-28T03:11:06;17.60;99.90
71084;DHT22;58741;52.672;13.548;2023-07-28T03:13:31;17.60;99.90
71084;DHT22;58741;52.672;13.548;2023-07-28T03:15:57;17.60;99.90
71084;DHT22;58741;52.672;13.548;2023-07-28T03:18:23;17.60;99.90
71084;DHT22;58741;52.672;13.548;2023-07-28T03:20:49;17.60;99.90
71084;DHT22;58741;52.672;13.548;2023-07-28T03:23:14;17.60;99.90
71084;DHT22;58741;52.672;13.548;2023-07-28T03:25:40;17.60;99.90
71084;DHT22;58741;52.672;13.548;2023-07-28T03:28:05;17.60;99.90
71084;DHT22;58741;52.672;13.548;2023-07-28T03:30:31;17.60;99.90
71084;DHT22;58741;52.672;13.548;2023-07-28T03:32:57;17.60;99.90
71084;DHT22;58741;52.672;13.548;2023-07-28T03:35:22;17.60;99.90
71084;DHT22;58741;52.672;13.548;2023-07-28T03:37:57;17.60;99.90
71084;DHT22;58741;52.672;13.548;2023-07-28T03:40:22;17.60;99.90
71084;DHT22;58741;52.672;13.548;2023-07-28T03:42:52;17.60;99.90
71084;DHT22;58741;52.672;13.548;2023-07-28T03:45:17;17.60;99.90
71084;DHT22;58741;52.672;13.548;2023-07-28T03:47:43;17.60;99.90
71084;DHT22;58741;52.672;13.548;2023-07-28T03:50:09;17.60;99.90
71084;DHT22;58741;52.672;13.548;2023-07-28T03:52:34;17.60;99.90
71084;DHT22;58741;52.672;13.548;2023-07-28T03:55:00;17.60;99.90
71084;DHT22;58741;52.672;13.548;2023-07-28T03:57:26;17.60;99.90
71084;DHT22;58741;52.672;13.548;2023-07-28T03:59:51;17.50;99.90
71084;DHT22;58741;52.672;13.548;2023-07-28T04:02:17;17.60;99.90
71084;DHT22;58741;52.672;13.548;2023-07-28T04:04:42;17.60;99.90
71084;DHT22;58741;52.672;13.548;2023-07-28T04:07:08;17.60;99.90
71084;DHT22;58741;52.672;13.548;2023-07-28T04:09:33;17.60;99.90
71084;DHT22;58741;52.672;13.548;2023-07-28T04:11:59;17.60;99.90
71084;DHT22;58741;52.672;13.548;2023-07-28T04:14:25;17.60;99.90
71084;DHT22;58741;52.672;13.548;2023-07-28T04:16:50;17.60;99.90
71084;DHT22;58741;52.672;13.548;2023-07-28T04:19:16;17.60;99.90
71084;DHT22;58741;52.672;13.548;2023-07-28T04:21:41;17.60;99.90
71084;DHT22;58741;52.672;13.548;2023-07-28T04:24:08;17.60;99.90
71084;DHT22;58741;52.672;13.548;2023-07-28T04:26:37;17.60;99.90
71084;DHT22;58741;52.672;13.548;2023-07-28T04:29:03;17.70;99.90
71084;DHT22;58741;52.672;13.548;2023-07-28T04:31:30;17.60;99.90
71084;DHT22;58741;52.672;13.548;2023-07-28T04:33:59;17.60;99.90
71084;DHT22;58741;52.672;13.548;2023-07-28T04:36:39;17.60;99.90
71084;DHT22;58741;52.672;13.548;2023-07-28T04:39:05;17.60;99.90
71084;DHT22;58741;52.672;13.548;2023-07-28T04:41:31;17.60;99.90
71084;DHT22;58741;52.672;13.548;2023-07-28T04:43:57;17.70;99.90
71084;DHT22;58741;52.672;13.548;2023-07-28T04:46:24;17.70;99.90
71084;DHT22;58741;52.672;13.548;2023-07-28T04:48:54;17.70;99.90
71084;DHT22;58741;52.672;13.548;2023-07-28T04:51:39;17.70;99.90
71084;DHT22;58741;52.672;13.548;2023-07-28T04:54:30;17.70;99.90
71084;DHT22;58741;52.672;13.548;2023-07-28T04:56:56;17.70;99.90
71084;DHT22;58741;52.672;13.548;2023-07-28T04:59:28;17.70;99.90
71084;DHT22;58741;52.672;13.548;2023-07-28T05:01:54;17.80;99.90
71084;DHT22;58741;52.672;13.548;2023-07-28T05:04:19;17.80;99.90
71084;DHT22;58741;52.672;13.548;2023-07-28T05:06:45;17.80;99.90
71084;DHT22;58741;52.672;13.548;2023-07-28T05:09:11;17.80;99.90
71084;DHT22;58741;52.672;13.548;2023-07-28T05:11:36;17.80;99.90
71084;DHT22;58741;52.672;13.548;2023-07-28T05:14:02;17.80;99.90
71084;DHT22;58741;52.672;13.548;2023-07-28T05:16:28;17.80;99.90
71084;DHT22;58741;52.672;13.548;2023-07-28T05:19:19;17.80;99.90
71084;DHT22;58741;52.672;13.548;2023-07-28T05:21:50;17.80;99.90
71084;DHT22;58741;52.672;13.548;2023-07-28T05:24:19;17.80;99.90
71084;DHT22;58741;52.672;13.548;2023-07-28T05:26:44;17.80;99.90
71084;DHT22;58741;52.672;13.548;2023-07-28T05:29:11;17.80;99.90
71084;DHT22;58741;52.672;13.548;2023-07-28T05:31:36;17.80;99.90
71084;DHT22;58741;52.672;13.548;2023-07-28T05:34:04;17.90;99.90
71084;DHT22;58741;52.672;13.548;2023-07-28T05:36:30;17.90;99.90
71084;DHT22;58741;52.672;13.548;2023-07-28T05:38:59;17.90;99.90
71084;DHT22;58741;52.672;13.548;2023-07-28T05:41:34;17.90;99.90
71084;DHT22;58741;52.672;13.548;2023-07-28T05:44:00;17.90;99.90
71084;DHT22;58741;52.672;13.548;2023-07-28T05:46:25;17.90;99.90
71084;DHT22;58741;52.672;13.548;2023-07-28T05:48:53;17.90;99.90
71084;DHT22;58741;52.672;13.548;2023-07-28T05:51:19;17.90;99.90
71084;DHT22;58741;52.672;13.548;2023-07-28T05:53:44;17.90;99.90
71084;DHT22;58741;52.672;13.548;2023-07-28T05:56:10;17.90;99.90
71084;DHT22;58741;52.672;13.548;2023-07-28T05:58:35;17.90;99.90
71084;DHT22;58741;52.672;13.548;2023-07-28T06:01:01;17.90;99.90
71084;DHT22;58741;52.672;13.548;2023-07-28T06:03:52;18.00;99.90
71084;DHT22;58741;52.672;13.548;2023-07-28T06:06:23;18.00;99.90
71084;DHT22;58741;52.672;13.548;2023-07-28T06:08:48;18.00;99.90
71084;DHT22;58741;52.672;13.548;2023-07-28T06:11:14;17.90;99.90
71084;DHT22;58741;52.672;13.548;2023-07-28T06:13:39;18.00;99.90
71084;DHT22;58741;52.672;13.548;2023-07-28T06:16:05;18.00;99.90
71084;DHT22;58741;52.672;13.548;2023-07-28T06:18:31;17.90;99.90
71084;DHT22;58741;52.672;13.548;2023-07-28T06:21:06;18.00;99.90
71084;DHT22;58741;52.672;13.548;2023-07-28T06:23:31;18.00;99.90
71084;DHT22;58741;52.672;13.548;2023-07-28T06:25:57;18.00;99.90
71084;DHT22;58741;52.672;13.548;2023-07-28T06:28:22;17.90;99.90
71084;DHT22;58741;52.672;13.548;2023-07-28T06:30:54;17.90;99.90
71084;DHT22;58741;52.672;13.548;2023-07-28T06:33:20;17.90;99.90
71084;DHT22;58741;52.672;13.548;2023-07-28T06:35:46;18.00;99.90
71084;DHT22;58741;52.672;13.548;2023-07-28T06:38:12;18.10;99.90
71084;DHT22;58741;52.672;13.548;2023-07-28T06:40:38;18.10;99.90
71084;DHT22;58741;52.672;13.548;2023-07-28T06:43:03;18.10;99.90
71084;DHT22;58741;52.672;13.548;2023-07-28T06:45:29;18.10;99.90
71084;DHT22;58741;52.672;13.548;2023-07-28T06:47:54;18.10;99.90
71084;DHT22;58741;52.672;13.548;2023-07-28T06:50:20;18.10;99.90
71084;DHT22;58741;52.672;13.548;2023-07-28T06:52:46;18.10;99.90
71084;DHT22;58741;52.672;13.548;2023-07-28T06:55:17;18.10;99.90
71084;DHT22;58741;52.672;13.548;2023-07-28T06:57:42;18.20;99.90
71084;DHT22;58741;52.672;13.548;2023-07-28T07:00:11;18.20;99.90
71084;DHT22;58741;52.672;13.548;2023-07-28T07:02:38;18.20;99.90
71084;DHT22;58741;52.672;13.548;2023-07-28T07:05:04;18.20;99.90
71084;DHT22;58741;52.672;13.548;2023-07-28T07:07:29;18.30;99.90
71084;DHT22;58741;52.672;13.548;2023-07-28T07:09:55;18.30;99.90
71084;DHT22;58741;52.672;13.548;2023-07-28T07:12:21;18.30;99.90
71084;DHT22;58741;52.672;13.548;2023-07-28T07:14:47;18.30;99.90
71084;DHT22;58741;52.672;13.548;2023-07-28T07:17:12;18.30;99.90
71084;DHT22;58741;52.672;13.548;2023-07-28T07:19:38;18.30;99.90
71084;DHT22;58741;52.672;13.548;2023-07-28T07:22:05;18.30;99.90
71084;DHT22;58741;52.672;13.548;2023-07-28T07:24:31;18.30;99.90
71084;DHT22;58741;52.672;13.548;2023-07-28T07:26:57;18.40;99.90
71084;DHT22;58741;52.672;13.548;2023-07-28T07:29:22;18.40;99.90
71084;DHT22;58741;52.672;13.548;2023-07-28T07:31:48;18.40;99.90
71084;DHT22;58741;52.672;13.548;2023-07-28T07:34:14;18.40;99.90
71084;DHT22;58741;52.672;13.548;2023-07-28T07:36:39;18.40;99.90
71084;DHT22;58741;52.672;13.548;2023-07-28T07:39:05;18.40;99.90
71084;DHT22;58741;52.672;13.548;2023-07-28T07:41:31;18.50;99.90
71084;DHT22;58741;52.672;13.548;2023-07-28T07:43:57;18.40;99.90
71084;DHT22;58741;52.672;13.548;2023-07-28T07:46:23;18.50;99.90
71084;DHT22;58741;52.672;13.548;2023-07-28T07:48:49;18.50;99.90
71084;DHT22;58741;52.672;13.548;2023-07-28T07:51:15;18.40;99.90
71084;DHT22;58741;52.672;13.548;2023-07-28T07:53:41;18.40;99.90
71084;DHT22;58741;52.672;13.548;2023-07-28T07:56:07;18.40;99.90
71084;DHT22;58741;52.672;13.548;2023-07-28T07:58:34;18.50;99.90
71084;DHT22;58741;52.672;13.548;2023-07-28T08:00:59;18.50;99.90
71084;DHT22;58741;52.672;13.548;2023-07-28T08:03:25;18.60;99.90
71084;DHT22;58741;52.672;13.548;2023-07-28T08:05:51;18.60;99.90
71084;DHT22;58741;52.672;13.548;2023-07-28T08:08:17;18.70;99.90
71084;DHT22;58741;52.672;13.548;2023-07-28T08:10:48;18.80;99.90
71084;DHT22;58741;52.672;13.548;2023-07-28T08:13:17;18.90;99.90
71084;DHT22;58741;52.672;13.548;2023-07-28T08:15:43;18.90;99.90
71084;DHT22;58741;52.672;13.548;2023-07-28T08:18:10;18.90;99.90
71084;DHT22;58741;52.672;13.548;2023-07-28T08:20:36;18.90;99.90
71084;DHT22;58741;52.672;13.548;2023-07-28T08:23:01;18.90;99.90
71084;DHT22;58741;52.672;13.548;2023-07-28T08:25:27;19.00;99.90
71084;DHT22;58741;52.672;13.548;2023-07-28T08:27:53;19.00;99.90
71084;DHT22;58741;52.672;13.548;2023-07-28T08:30:18;19.10;99.90
71084;DHT22;58741;52.672;13.548;2023-07-28T08:32:44;19.10;99.90
71084;DHT22;58741;52.672;13.548;2023-07-28T08:35:10;19.10;99.90
71084;DHT22;58741;52.672;13.548;2023-07-28T08:37:35;19.20;99.90
71084;DHT22;58741;52.672;13.548;2023-07-28T08:40:02;19.20;99.90
71084;DHT22;58741;52.672;13.548;2023-07-28T08:42:30;19.30;99.90
71084;DHT22;58741;52.672;13.548;2023-07-28T08:44:55;19.30;99.90
71084;DHT22;58741;52.672;13.548;2023-07-28T08:47:21;19.40;99.90
71084;DHT22;58741;52.672;13.548;2023-07-28T08:49:47;19.40;99.90
71084;DHT22;58741;52.672;13.548;2023-07-28T08:52:16;19.30;99.90
71084;DHT22;58741;52.672;13.548;2023-07-28T08:54:42;19.30;99.90
71084;DHT22;58741;52.672;13.548;2023-07-28T08:57:09;19.30;99.90
71084;DHT22;58741;52.672;13.548;2023-07-28T08:59:35;19.40;99.90
71084;DHT22;58741;52.672;13.548;2023-07-28T09:02:02;19.40;99.90
71084;DHT22;58741;52.672;13.548;2023-07-28T09:04:27;19.40;99.90
71084;DHT22;58741;52.672;13.548;2023-07-28T09:06:53;19.50;99.90
71084;DHT22;58741;52.672;13.548;2023-07-28T09:09:21;19.50;99.90
71084;DHT22;58741;52.672;13.548;2023-07-28T09:11:52;19.60;99.90
71084;DHT22;58741;52.672;13.548;2023-07-28T09:14:19;19.60;99.90
71084;DHT22;58741;52.672;13.548;2023-07-28T09:16:45;19.60;99.90
71084;DHT22;58741;52.672;13.548;2023-07-28T09:19:12;19.60;99.90
71084;DHT22;58741;52.672;13.548;2023-07-28T09:21:38;19.60;99.90
71084;DHT22;58741;52.672;13.548;2023-07-28T09:24:06;19.60;99.90
71084;DHT22;58741;52.672;13.548;2023-07-28T09:26:46;19.60;99.90
71084;DHT22;58741;52.672;13.548;2023-07-28T09:31:38;19.60;99.90
71084;DHT22;58741;52.672;13.548;2023-07-28T09:34:09;19.80;99.90
71084;DHT22;58741;52.672;13.548;2023-07-28T09:36:36;19.90;99.90
71084;DHT22;58741;52.672;13.548;2023-07-28T09:39:04;19.90;99.90
71084;DHT22;58741;52.672;13.548;2023-07-28T09:41:37;20.00;99.90
71084;DHT22;58741;52.672;13.548;2023-07-28T09:44:07;20.10;99.90
71084;DHT22;58741;52.672;13.548;2023-07-28T09:46:34;20.20;99.90
71084;DHT22;58741;52.672;13.548;2023-07-28T09:49:05;20.30;99.90
71084;DHT22;58741;52.672;13.548;2023-07-28T09:51:32;20.40;99.90
71084;DHT22;58741;52.672;13.548;2023-07-28T09:54:11;20.50;99.90
71084;DHT22;58741;52.672;13.548;2023-07-28T09:56:37;20.50;99.90
71084;DHT22;58741;52.672;13.548;2023-07-28T09:59:08;20.40;99.90
71084;DHT22;58741;52.672;13.548;2023-07-28T10:01:36;20.40;99.90
71084;DHT22;58741;52.672;13.548;2023-07-28T10:04:02;20.50;99.90
71084;DHT22;58741;52.672;13.548;2023-07-28T10:06:28;20.70;99.90
71084;DHT22;58741;52.672;13.548;2023-07-28T10:08:55;20.80;99.90
71084;DHT22;58741;52.672;13.548;2023-07-28T10:11:21;20.80;99.90
71084;DHT22;58741;52.672;13.548;2023-07-28T10:13:47;20.70;99.90
71084;DHT22;58741;52.672;13.548;2023-07-28T10:16:13;20.60;99.90
71084;DHT22;58741;52.672;13.548;2023-07-28T10:18:52;20.50;99.90
71084;DHT22;58741;52.672;13.548;2023-07-28T10:21:19;20.30;99.90
71084;DHT22;58741;52.672;13.548;2023-07-28T10:23:54;20.10;99.90
71084;DHT22;58741;52.672;13.548;2023-07-28T10:26:40;19.90;99.90
71084;DHT22;58741;52.672;13.548;2023-07-28T10:29:13;19.70;99.90
71084;DHT22;58741;52.672;13.548;2023-07-28T10:32:09;19.70;99.90
71084;DHT22;58741;52.672;13.548;2023-07-28T10:34:59;19.60;99.90
71084;DHT22;58741;52.672;13.548;2023-07-28T10:37:26;19.60;99.90
71084;DHT22;58741;52.672;13.548;2023-07-28T10:40:27;19.60;99.90
71084;DHT22;58741;52.672;13.548;2023-07-28T10:42:53;19.60;99.90
71084;DHT22;58741;52.672;13.548;2023-07-28T10:45:20;19.70;99.90
71084;DHT22;58741;52.672;13.548;2023-07-28T10:47:46;19.80;99.90
71084;DHT22;58741;52.672;13.548;2023-07-28T10:50:13;19.80;99.90
71084;DHT22;58741;52.672;13.548;2023-07-28T10:52:43;19.80;99.90
71084;DHT22;58741;52.672;13.548;2023-07-28T10:55:25;19.70;99.90
71084;DHT22;58741;52.672;13.548;2023-07-28T10:57:52;19.70;99.90
71084;DHT22;58741;52.672;13.548;2023-07-28T11:00:20;19.70;99.90
71084;DHT22;58741;52.672;13.548;2023-07-28T11:02:54;19.80;99.90
71084;DHT22;58741;52.672;13.548;2023-07-28T11:05:26;19.80;99.90
71084;DHT22;58741;52.672;13.548;2023-07-28T11:07:54;19.90;99.90
71084;DHT22;58741;52.672;13.548;2023-07-28T11:10:20;20.10;99.90
71084;DHT22;58741;52.672;13.548;2023-07-28T11:12:51;20.40;99.90
71084;DHT22;58741;52.672;13.548;2023-07-28T11:15:18;20.50;99.90
71084;DHT22;58741;52.672;13.548;2023-07-28T11:17:49;20.70;99.90
71084;DHT22;58741;52.672;13.548;2023-07-28T11:20:23;20.80;99.90
71084;DHT22;58741;52.672;13.548;2023-07-28T11:22:57;20.90;99.90
71084;DHT22;58741;52.672;13.548;2023-07-28T11:25:23;21.10;99.90
71084;DHT22;58741;52.672;13.548;2023-07-28T11:27:50;21.20;99.90
71084;DHT22;58741;52.672;13.548;2023-07-28T11:30:17;21.20;99.90
71084;DHT22;58741;52.672;13.548;2023-07-28T11:32:49;21.10;99.90
71084;DHT22;58741;52.672;13.548;2023-07-28T11:35:16;21.10;99.90
71084;DHT22;58741;52.672;13.548;2023-07-28T11:37:44;21.10;99.90
71084;DHT22;58741;52.672;13.548;2023-07-28T11:40:11;21.20;99.90
71084;DHT22;58741;52.672;13.548;2023-07-28T11:42:43;21.20;99.90
71084;DHT22;58741;52.672;13.548;2023-07-28T11:45:10;21.20;99.90
71084;DHT22;58741;52.672;13.548;2023-07-28T11:47:37;21.10;99.90
71084;DHT22;58741;52.672;13.548;2023-07-28T11:50:03;21.10;99.90
71084;DHT22;58741;52.672;13.548;2023-07-28T11:52:35;21.10;99.90
71084;DHT22;58741;52.672;13.548;2023-07-28T11:55:05;21.10;99.90
71084;DHT22;58741;52.672;13.548;2023-07-28T11:57:31;21.00;99.90
71084;DHT22;58741;52.672;13.548;2023-07-28T11:59:58;21.00;99.90
71084;DHT22;58741;52.672;13.548;2023-07-28T12:02:28;20.90;99.90
71084;DHT22;58741;52.672;13.548;2023-07-28T12:04:54;20.70;99.90
71084;DHT22;58741;52.672;13.548;2023-07-28T12:07:28;20.60;99.90
71084;DHT22;58741;52.672;13.548;2023-07-28T12:09:55;20.60;99.90
71084;DHT22;58741;52.672;13.548;2023-07-28T12:12:27;20.60;99.90
71084;DHT22;58741;52.672;13.548;2023-07-28T12:14:57;20.60;99.90
71084;DHT22;58741;52.672;13.548;2023-07-28T12:17:30;20.60;99.90
71084;DHT22;58741;52.672;13.548;2023-07-28T12:20:06;20.60;99.90
71084;DHT22;58741;52.672;13.548;2023-07-28T12:22:40;20.60;99.90
71084;DHT22;58741;52.672;13.548;2023-07-28T12:25:06;20.70;99.90
71084;DHT22;58741;52.672;13.548;2023-07-28T12:27:33;20.60;99.90
71084;DHT22;58741;52.672;13.548;2023-07-28T12:29:59;20.70;99.90
71084;DHT22;58741;52.672;13.548;2023-07-28T12:32:25;20.80;99.90
71084;DHT22;58741;52.672;13.548;2023-07-28T12:34:51;21.00;99.90
71084;DHT22;58741;52.672;13.548;2023-07-28T12:37:17;21.10;99.90
71084;DHT22;58741;52.672;13.548;2023-07-28T12:39:43;21.30;99.90
71084;DHT22;58741;52.672;13.548;2023-07-28T12:42:10;21.40;99.90
71084;DHT22;58741;52.672;13.548;2023-07-28T12:44:37;21.50;99.90
71084;DHT22;58741;52.672;13.548;2023-07-28T12:47:03;21.60;99.90
71084;DHT22;58741;52.672;13.548;2023-07-28T12:49:30;21.70;99.90
71084;DHT22;58741;52.672;13.548;2023-07-28T12:51:57;21.80;99.90
71084;DHT22;58741;52.672;13.548;2023-07-28T12:54:23;21.90;99.90
71084;DHT22;58741;52.672;13.548;2023-07-28T12:56:49;22.10;99.90
71084;DHT22;58741;52.672;13.548;2023-07-28T12:59:15;22.20;99.90
71084;DHT22;58741;52.672;13.548;2023-07-28T13:01:40;22.10;99.90
71084;DHT22;58741;52.672;13.548;2023-07-28T13:04:06;22.20;99.90
71084;DHT22;58741;52.672;13.548;2023-07-28T13:06:32;22.40;99.90
71084;DHT22;58741;52.672;13.548;2023-07-28T13:08:58;22.60;99.90
71084;DHT22;58741;52.672;13.548;2023-07-28T13:11:23;22.90;99.90
71084;DHT22;58741;52.672;13.548;2023-07-28T13:13:49;23.10;99.90
71084;DHT22;58741;52.672;13.548;2023-07-28T13:16:14;23.30;99.90
71084;DHT22;58741;52.672;13.548;2023-07-28T13:18:42;23.40;99.90
71084;DHT22;58741;52.672;13.548;2023-07-28T13:21:07;23.30;99.90
71084;DHT22;58741;52.672;13.548;2023-07-28T13:23:33;23.20;99.90
71084;DHT22;58741;52.672;13.548;2023-07-28T13:25:59;23.20;99.90
71084;DHT22;58741;52.672;13.548;2023-07-28T13:28:24;23.20;99.90
71084;DHT22;58741;52.672;13.548;2023-07-28T13:30:51;23.30;99.90
71084;DHT22;58741;52.672;13.548;2023-07-28T13:33:17;23.20;99.90
71084;DHT22;58741;52.672;13.548;2023-07-28T13:35:42;23.00;99.90
71084;DHT22;58741;52.672;13.548;2023-07-28T13:38:08;23.00;99.90
71084;DHT22;58741;52.672;13.548;2023-07-28T13:40:35;22.90;99.90
71084;DHT22;58741;52.672;13.548;2023-07-28T13:43:01;22.80;99.90
71084;DHT22;58741;52.672;13.548;2023-07-28T13:45:26;22.80;99.90
71084;DHT22;58741;52.672;13.548;2023-07-28T13:47:52;22.80;99.90
71084;DHT22;58741;52.672;13.548;2023-07-28T13:50:18;22.80;99.90
71084;DHT22;58741;52.672;13.548;2023-07-28T13:52:43;22.90;99.90
71084;DHT22;58741;52.672;13.548;2023-07-28T13:55:09;22.90;99.90
71084;DHT22;58741;52.672;13.548;2023-07-28T13:57:35;22.80;99.90
71084;DHT22;58741;52.672;13.548;2023-07-28T14:00:01;22.80;99.90
71084;DHT22;58741;52.672;13.548;2023-07-28T14:02:28;22.70;99.90
71084;DHT22;58741;52.672;13.548;2023-07-28T14:04:53;22.60;99.90
71084;DHT22;58741;52.672;13.548;2023-07-28T14:07:19;22.60;99.90
71084;DHT22;58741;52.672;13.548;2023-07-28T14:09:45;22.70;99.90
71084;DHT22;58741;52.672;13.548;2023-07-28T14:12:11;22.70;99.90
71084;DHT22;58741;52.672;13.548;2023-07-28T14:14:36;22.80;99.90
71084;DHT22;58741;52.672;13.548;2023-07-28T14:17:02;22.80;99.90
71084;DHT22;58741;52.672;13.548;2023-07-28T14:19:27;22.80;99.90
71084;DHT22;58741;52.672;13.548;2023-07-28T14:21:53;22.80;99.90
71084;DHT22;58741;52.672;13.548;2023-07-28T14:24:19;22.70;99.90
71084;DHT22;58741;52.672;13.548;2023-07-28T14:26:45;22.60;99.90
71084;DHT22;58741;52.672;13.548;2023-07-28T14:29:10;22.60;99.90
71084;DHT22;58741;52.672;13.548;2023-07-28T14:31:36;22.60;99.90
71084;DHT22;58741;52.672;13.548;2023-07-28T14:34:01;22.60;99.90
71084;DHT22;58741;52.672;13.548;2023-07-28T14:36:27;22.70;99.90
71084;DHT22;58741;52.672;13.548;2023-07-28T14:38:52;22.70;99.90
71084;DHT22;58741;52.672;13.548;2023-07-28T14:41:18;22.80;99.90
71084;DHT22;58741;52.672;13.548;2023-07-28T14:43:44;23.00;99.90
71084;DHT22;58741;52.672;13.548;2023-07-28T14:46:09;23.20;99.90
71084;DHT22;58741;52.672;13.548;2023-07-28T14:48:35;23.40;99.90
71084;DHT22;58741;52.672;13.548;2023-07-28T14:51:01;23.60;99.90
71084;DHT22;58741;52.672;13.548;2023-07-28T14:53:31;23.60;99.90
71084;DHT22;58741;52.672;13.548;2023-07-28T14:55:58;23.50;99.90
71084;DHT22;58741;52.672;13.548;2023-07-28T14:58:24;23.60;99.90
71084;DHT22;58741;52.672;13.548;2023-07-28T15:00:50;23.70;99.90
71084;DHT22;58741;52.672;13.548;2023-07-28T15:03:16;23.70;99.90
71084;DHT22;58741;52.672;13.548;2023-07-28T15:05:41;23.80;99.90
71084;DHT22;58741;52.672;13.548;2023-07-28T15:08:07;23.90;99.90
71084;DHT22;58741;52.672;13.548;2023-07-28T15:10:32;23.80;99.90
71084;DHT22;58741;52.672;13.548;2023-07-28T15:12:58;23.70;99.90
71084;DHT22;58741;52.672;13.548;2023-07-28T15:15:24;23.50;99.90
71084;DHT22;58741;52.672;13.548;2023-07-28T15:17:49;23.40;99.90
71084;DHT22;58741;52.672;13.548;2023-07-28T15:20:15;23.30;99.90
71084;DHT22;58741;52.672;13.548;2023-07-28T15:22:45;23.40;99.90